createdAt,value
2019-02-28T00:00:44.820Z,1008.60
2019-02-28T00:01:46.337Z,1008.61
2019-02-28T00:02:44.813Z,1008.50
2019-02-28T00:03:44.774Z,1008.57
2019-02-28T00:04:44.780Z,1008.59
2019-02-28T00:05:44.775Z,1008.59
2019-02-28T00:06:45.187Z,1008.54
2019-02-28T00:07:44.776Z,1008.57
2019-02-28T00:08:44.792Z,1008.50
2019-02-28T00:09:44.766Z,1008.60
2019-02-28T00:10:44.788Z,1008.60
2019-02-28T00:11:44.867Z,1008.52
2019-02-28T00:12:45.259Z,1008.59
2019-02-28T00:13:44.806Z,1008.55
2019-02-28T00:14:45.611Z,1008.51
2019-02-28T00:15:44.783Z,1008.46
2019-02-28T00:16:44.818Z,1008.49
2019-02-28T00:17:44.837Z,1008.45
2019-02-28T00:18:49.651Z,1008.43
2019-02-28T00:19:44.808Z,1008.45
2019-02-28T00:20:44.821Z,1008.40
2019-02-28T00:21:44.835Z,1008.37
2019-02-28T00:22:48.361Z,1008.35
2019-02-28T00:23:44.803Z,1008.29
2019-02-28T00:24:44.791Z,1008.34
2019-02-28T00:25:44.850Z,1008.33
2019-02-28T00:26:47.547Z,1008.24
2019-02-28T00:27:44.822Z,1008.24
2019-02-28T00:28:44.800Z,1008.22
2019-02-28T00:29:44.813Z,1008.30
2019-02-28T00:30:44.817Z,1008.22
2019-02-28T00:31:49.516Z,1008.24
2019-02-28T00:32:44.868Z,1008.24
2019-02-28T00:33:44.854Z,1008.15
2019-02-28T00:34:44.856Z,1008.13
2019-02-28T00:35:45.498Z,1008.13
2019-02-28T00:36:44.813Z,1008.13
2019-02-28T00:37:44.863Z,1008.14
2019-02-28T00:38:44.878Z,1008.10
2019-02-28T00:39:44.839Z,1008.16
2019-02-28T00:40:44.839Z,1008.13
2019-02-28T00:41:44.821Z,1008.05
2019-02-28T00:42:44.847Z,1008.18
2019-02-28T00:43:44.863Z,1008.12
2019-02-28T00:44:44.822Z,1008.14
2019-02-28T00:45:44.838Z,1008.08
2019-02-28T00:46:45.424Z,1008.09
2019-02-28T00:47:47.523Z,1008.05
2019-02-28T00:48:44.831Z,1008.05
2019-02-28T00:49:44.848Z,1008.00
2019-02-28T00:50:44.843Z,1008.07
2019-02-28T00:51:44.881Z,1008.01
2019-02-28T00:52:44.891Z,1008.04
2019-02-28T00:53:44.878Z,1008.00
2019-02-28T00:54:44.847Z,1008.04
2019-02-28T00:55:45.947Z,1008.05
2019-02-28T00:56:44.881Z,1008.00
2019-02-28T00:57:44.899Z,1008.03
2019-02-28T00:58:44.842Z,1008.01
2019-02-28T00:59:44.875Z,1008.10
2019-02-28T01:00:44.836Z,1008.07
2019-02-28T01:01:46.036Z,1008.09
2019-02-28T01:02:44.853Z,1008.03
2019-02-28T01:03:44.876Z,1008.06
2019-02-28T01:04:44.850Z,1008.06
2019-02-28T01:05:44.862Z,1008.10
2019-02-28T01:06:44.863Z,1008.07
2019-02-28T01:07:48.154Z,1008.08
2019-02-28T01:08:44.867Z,1008.08
2019-02-28T01:09:44.875Z,1008.13
2019-02-28T01:10:44.894Z,1008.11
2019-02-28T01:11:45.597Z,1008.13
2019-02-28T01:12:44.882Z,1008.06
2019-02-28T01:13:44.875Z,1008.15
2019-02-28T01:14:44.867Z,1008.12
2019-02-28T01:15:45.783Z,1008.19
2019-02-28T01:16:44.906Z,1008.18
2019-02-28T01:17:44.895Z,1008.17
2019-02-28T01:18:44.872Z,1008.12
2019-02-28T01:19:44.872Z,1008.16
2019-02-28T01:20:49.972Z,1008.08
2019-02-28T01:21:44.920Z,1008.04
2019-02-28T01:22:44.931Z,1008.10
2019-02-28T01:23:44.924Z,1008.04
2019-02-28T01:24:44.876Z,1008.04
2019-02-28T01:25:44.891Z,1008.04
2019-02-28T01:26:46.621Z,1007.97
2019-02-28T01:27:44.894Z,1007.96
2019-02-28T01:28:44.880Z,1007.96
2019-02-28T01:29:44.875Z,1008.00
2019-02-28T01:30:44.889Z,1007.90
2019-02-28T01:31:44.935Z,1007.87
2019-02-28T01:32:49.976Z,1007.89
2019-02-28T01:33:44.944Z,1007.96
2019-02-28T01:34:44.941Z,1007.85
2019-02-28T01:35:44.892Z,1007.82
2019-02-28T01:36:45.948Z,1007.86
2019-02-28T01:37:44.951Z,1007.77
2019-02-28T01:38:44.913Z,1007.77
2019-02-28T01:39:44.899Z,1007.67
2019-02-28T01:40:44.914Z,1007.67
2019-02-28T01:41:45.351Z,1007.56
2019-02-28T01:42:44.898Z,1007.67
2019-02-28T01:43:44.918Z,1007.59
2019-02-28T01:44:44.905Z,1007.56
2019-02-28T01:45:44.943Z,1007.54
2019-02-28T01:46:44.915Z,1007.56
2019-02-28T01:47:44.943Z,1007.58
2019-02-28T01:48:44.923Z,1007.56
2019-02-28T01:49:44.921Z,1007.58
2019-02-28T01:50:44.904Z,1007.62
2019-02-28T01:51:44.919Z,1007.53
2019-02-28T01:52:46.130Z,1007.49
2019-02-28T01:53:44.949Z,1007.51
2019-02-28T01:54:44.912Z,1007.46
2019-02-28T01:55:44.916Z,1007.49
2019-02-28T01:56:44.951Z,1007.51
2019-02-28T01:57:44.904Z,1007.45
2019-02-28T01:58:47.621Z,1007.48
2019-02-28T01:59:44.906Z,1007.48
2019-02-28T02:00:44.916Z,1007.54
2019-02-28T02:01:44.954Z,1007.47
2019-02-28T02:02:44.916Z,1007.45
2019-02-28T02:03:44.993Z,1007.43
2019-02-28T02:04:45.799Z,1007.48
2019-02-28T02:05:44.943Z,1007.48
2019-02-28T02:06:44.934Z,1007.44
2019-02-28T02:07:44.923Z,1007.44
2019-02-28T02:08:44.946Z,1007.43
2019-02-28T02:09:46.108Z,1007.42
2019-02-28T02:10:44.937Z,1007.42
2019-02-28T02:11:44.940Z,1007.47
2019-02-28T02:12:44.951Z,1007.41
2019-02-28T02:13:44.940Z,1007.38
2019-02-28T02:14:45.721Z,1007.32
2019-02-28T02:15:44.939Z,1007.40
2019-02-28T02:16:44.958Z,1007.36
2019-02-28T02:17:44.954Z,1007.36
2019-02-28T02:18:44.938Z,1007.31
2019-02-28T02:19:45.003Z,1007.28
2019-02-28T02:20:44.979Z,1007.21
2019-02-28T02:21:44.949Z,1007.25
2019-02-28T02:22:45.319Z,1007.22
2019-02-28T02:23:44.959Z,1007.24
2019-02-28T02:24:44.969Z,1007.25
2019-02-28T02:25:44.945Z,1007.27
2019-02-28T02:26:45.846Z,1007.32
2019-02-28T02:27:45.000Z,1007.20
2019-02-28T02:28:44.979Z,1007.28
2019-02-28T02:29:45.040Z,1007.20
2019-02-28T02:30:50.586Z,1007.21
2019-02-28T02:31:44.970Z,1007.25
2019-02-28T02:32:44.977Z,1007.15
2019-02-28T02:33:51.104Z,1007.17
2019-02-28T02:34:44.977Z,1007.20
2019-02-28T02:35:44.965Z,1007.19
2019-02-28T02:36:45.003Z,1007.14
2019-02-28T02:37:45.008Z,1007.24
2019-02-28T02:38:44.989Z,1007.23
2019-02-28T02:39:45.050Z,1007.17
2019-02-28T02:40:44.992Z,1007.13
2019-02-28T02:41:44.972Z,1007.07
2019-02-28T02:42:48.398Z,1007.11
2019-02-28T02:43:45.013Z,1007.07
2019-02-28T02:44:45.026Z,1007.05
2019-02-28T02:45:45.010Z,1007.10
2019-02-28T02:46:44.966Z,1007.07
2019-02-28T02:47:44.996Z,1007.08
2019-02-28T02:48:44.981Z,1007.13
2019-02-28T02:49:45.015Z,1007.06
2019-02-28T02:50:44.971Z,1007.06
2019-02-28T02:51:49.455Z,1007.04
2019-02-28T02:52:45.039Z,1007.08
2019-02-28T02:53:44.976Z,1007.08
2019-02-28T02:54:45.026Z,1007.12
2019-02-28T02:55:45.043Z,1007.10
2019-02-28T02:56:44.980Z,1007.08
2019-02-28T02:57:50.485Z,1007.08
2019-02-28T02:58:45.003Z,1007.08
2019-02-28T02:59:45.008Z,1007.01
2019-02-28T03:00:49.804Z,1007.04
2019-02-28T03:01:45.038Z,1007.00
2019-02-28T03:02:45.032Z,1006.99
2019-02-28T03:03:45.008Z,1006.98
2019-02-28T03:04:45.022Z,1006.98
2019-02-28T03:05:45.033Z,1006.95
2019-02-28T03:06:45.929Z,1006.85
2019-02-28T03:07:45.057Z,1006.88
2019-02-28T03:08:45.063Z,1006.94
2019-02-28T03:09:45.058Z,1006.86
2019-02-28T03:10:45.063Z,1006.94
2019-02-28T03:11:45.016Z,1006.93
2019-02-28T03:12:45.071Z,1006.81
2019-02-28T03:13:45.059Z,1006.83
2019-02-28T03:14:48.843Z,1006.84
2019-02-28T03:15:45.038Z,1006.82
2019-02-28T03:16:45.030Z,1006.84
2019-02-28T03:17:47.186Z,1006.80
2019-02-28T03:18:45.026Z,1006.75
2019-02-28T03:19:45.067Z,1006.72
2019-02-28T03:20:45.062Z,1006.71
2019-02-28T03:21:51.311Z,1006.69
2019-02-28T03:22:45.060Z,1006.64
2019-02-28T03:23:45.087Z,1006.70
2019-02-28T03:24:50.654Z,1006.67
2019-02-28T03:25:45.051Z,1006.67
2019-02-28T03:26:45.018Z,1006.69
2019-02-28T03:27:45.038Z,1006.64
2019-02-28T03:28:45.038Z,1006.68
2019-02-28T03:29:45.100Z,1006.57
2019-02-28T03:30:45.072Z,1006.59
2019-02-28T03:31:55.245Z,1006.62
2019-02-28T03:32:45.093Z,1006.54
2019-02-28T03:33:45.046Z,1006.51
2019-02-28T03:34:54.666Z,1006.53
2019-02-28T03:35:45.060Z,1006.54
2019-02-28T03:36:55.461Z,1006.48
2019-02-28T03:37:45.105Z,1006.54
2019-02-28T03:38:49.654Z,1006.49
2019-02-28T03:39:45.044Z,1006.44
2019-02-28T03:40:45.037Z,1006.53
2019-02-28T03:41:45.064Z,1006.48
2019-02-28T03:42:45.046Z,1006.46
2019-02-28T03:43:45.087Z,1006.59
2019-02-28T03:44:45.065Z,1006.49
2019-02-28T03:45:45.062Z,1006.49
2019-02-28T03:46:46.771Z,1006.56
2019-02-28T03:47:45.118Z,1006.59
2019-02-28T03:48:45.052Z,1006.48
2019-02-28T03:49:49.899Z,1006.53
2019-02-28T03:50:45.098Z,1006.53
2019-02-28T03:51:45.129Z,1006.46
2019-02-28T03:52:45.275Z,1006.51
2019-02-28T03:53:45.072Z,1006.47
2019-02-28T03:54:45.144Z,1006.40
2019-02-28T03:55:45.092Z,1006.38
2019-02-28T03:56:51.077Z,1006.33
2019-02-28T03:57:45.114Z,1006.39
2019-02-28T03:58:45.068Z,1006.38
2019-02-28T03:59:45.095Z,1006.34
2019-02-28T04:00:45.077Z,1006.35
2019-02-28T04:01:45.682Z,1006.32
2019-02-28T04:02:45.099Z,1006.37
2019-02-28T04:03:45.073Z,1006.36
2019-02-28T04:04:49.076Z,1006.29
2019-02-28T04:05:45.121Z,1006.33
2019-02-28T04:06:45.086Z,1006.35
2019-02-28T04:07:53.027Z,1006.37
2019-02-28T04:08:45.108Z,1006.39
2019-02-28T04:09:45.231Z,1006.39
2019-02-28T04:10:45.094Z,1006.35
2019-02-28T04:11:45.121Z,1006.38
2019-02-28T04:12:46.822Z,1006.47
2019-02-28T04:13:45.091Z,1006.39
2019-02-28T04:14:45.123Z,1006.41
2019-02-28T04:15:56.125Z,1006.34
2019-02-28T04:16:45.109Z,1006.41
2019-02-28T04:17:45.074Z,1006.38
2019-02-28T04:18:46.645Z,1006.36
2019-02-28T04:19:45.116Z,1006.42
2019-02-28T04:20:45.196Z,1006.41
2019-02-28T04:21:46.598Z,1006.38
2019-02-28T04:22:45.135Z,1006.42
2019-02-28T04:23:45.111Z,1006.35
2019-02-28T04:24:46.315Z,1006.41
2019-02-28T04:25:45.104Z,1006.35
2019-02-28T04:26:45.108Z,1006.41
2019-02-28T04:27:45.091Z,1006.29
2019-02-28T04:28:45.135Z,1006.34
2019-02-28T04:29:45.104Z,1006.31
2019-02-28T04:30:45.129Z,1006.32
2019-02-28T04:31:45.155Z,1006.33
2019-02-28T04:32:45.115Z,1006.28
2019-02-28T04:33:45.106Z,1006.31
2019-02-28T04:34:45.851Z,1006.33
2019-02-28T04:35:45.104Z,1006.33
2019-02-28T04:36:45.123Z,1006.34
2019-02-28T04:37:47.100Z,1006.25
2019-02-28T04:38:45.142Z,1006.19
2019-02-28T04:39:45.119Z,1006.15
2019-02-28T04:40:45.146Z,1006.21
2019-02-28T04:41:45.135Z,1006.17
2019-02-28T04:42:45.107Z,1006.17
2019-02-28T04:43:45.157Z,1006.20
2019-02-28T04:44:45.138Z,1006.11
2019-02-28T04:45:45.137Z,1006.13
2019-02-28T04:46:45.167Z,1006.14
2019-02-28T04:47:45.155Z,1006.09
2019-02-28T04:48:45.708Z,1006.07
2019-02-28T04:49:45.125Z,1005.99
2019-02-28T04:50:45.196Z,1006.00
2019-02-28T04:51:45.171Z,1006.02
2019-02-28T04:52:48.068Z,1005.99
2019-02-28T04:53:45.123Z,1006.03
2019-02-28T04:54:45.184Z,1006.05
2019-02-28T04:55:45.132Z,1006.03
2019-02-28T04:56:45.563Z,1006.05
2019-02-28T04:57:45.161Z,1006.07
2019-02-28T04:58:45.160Z,1006.07
2019-02-28T04:59:45.135Z,1006.05
2019-02-28T05:00:45.143Z,1006.02
2019-02-28T05:01:45.461Z,1006.06
2019-02-28T05:02:45.167Z,1006.00
2019-02-28T05:03:45.188Z,1006.07
2019-02-28T05:04:45.179Z,1006.08
2019-02-28T05:05:46.931Z,1006.08
2019-02-28T05:06:45.165Z,1006.11
2019-02-28T05:07:45.174Z,1006.12
2019-02-28T05:08:45.182Z,1006.09
2019-02-28T05:09:47.866Z,1006.12
2019-02-28T05:10:45.184Z,1006.07
2019-02-28T05:11:45.159Z,1006.09
2019-02-28T05:12:45.257Z,1006.08
2019-02-28T05:13:48.272Z,1006.05
2019-02-28T05:14:45.200Z,1006.04
2019-02-28T05:15:45.208Z,1006.03
2019-02-28T05:16:47.451Z,1006.02
2019-02-28T05:17:45.177Z,1005.96
2019-02-28T05:18:45.173Z,1005.95
2019-02-28T05:19:45.205Z,1006.03
2019-02-28T05:20:45.974Z,1005.97
2019-02-28T05:21:45.184Z,1006.00
2019-02-28T05:22:45.216Z,1005.93
2019-02-28T05:23:45.165Z,1005.84
2019-02-28T05:24:45.201Z,1005.94
2019-02-28T05:25:45.208Z,1005.94
2019-02-28T05:26:45.214Z,1005.90
2019-02-28T05:27:45.223Z,1005.96
2019-02-28T05:28:45.182Z,1005.94
2019-02-28T05:29:45.220Z,1005.89
2019-02-28T05:30:45.168Z,1005.90
2019-02-28T05:31:45.220Z,1005.88
2019-02-28T05:32:45.234Z,1005.93
2019-02-28T05:33:45.177Z,1005.91
2019-02-28T05:34:47.421Z,1005.92
2019-02-28T05:35:45.226Z,1005.96
2019-02-28T05:36:45.219Z,1005.99
2019-02-28T05:37:48.292Z,1005.95
2019-02-28T05:38:45.215Z,1006.04
2019-02-28T05:39:45.200Z,1005.95
2019-02-28T05:40:45.180Z,1005.95
2019-02-28T05:41:48.964Z,1005.95
2019-02-28T05:42:45.231Z,1005.94
2019-02-28T05:43:45.209Z,1006.07
2019-02-28T05:44:45.232Z,1006.04
2019-02-28T05:45:48.840Z,1006.03
2019-02-28T05:46:45.231Z,1006.01
2019-02-28T05:47:46.809Z,1006.07
2019-02-28T05:48:45.216Z,1005.98
2019-02-28T05:49:45.233Z,1006.03
2019-02-28T05:50:46.830Z,1006.01
2019-02-28T05:51:45.215Z,1005.95
2019-02-28T05:52:45.239Z,1006.00
2019-02-28T05:53:45.230Z,1005.96
2019-02-28T05:54:47.294Z,1005.95
2019-02-28T05:55:45.200Z,1005.96
2019-02-28T05:56:45.195Z,1005.95
2019-02-28T05:57:45.202Z,1005.88
2019-02-28T05:58:45.208Z,1005.93
2019-02-28T05:59:45.217Z,1005.96
2019-02-28T06:00:45.218Z,1005.97
2019-02-28T06:01:46.987Z,1006.02
2019-02-28T06:02:45.218Z,1006.02
2019-02-28T06:03:45.254Z,1005.93
2019-02-28T06:04:45.257Z,1005.97
2019-02-28T06:05:46.352Z,1006.05
2019-02-28T06:06:45.225Z,1006.01
2019-02-28T06:07:45.220Z,1006.00
2019-02-28T06:08:45.281Z,1006.06
2019-02-28T06:09:45.548Z,1005.97
2019-02-28T06:10:45.223Z,1006.05
2019-02-28T06:11:45.240Z,1006.01
2019-02-28T06:12:45.234Z,1006.05
2019-02-28T06:13:45.265Z,1005.95
2019-02-28T06:14:45.249Z,1006.01
2019-02-28T06:15:45.268Z,1006.00
2019-02-28T06:16:46.864Z,1005.95
2019-02-28T06:17:45.246Z,1005.95
2019-02-28T06:18:45.269Z,1005.92
2019-02-28T06:19:45.283Z,1005.92
2019-02-28T06:20:45.249Z,1005.90
2019-02-28T06:21:45.240Z,1006.00
2019-02-28T06:22:45.261Z,1005.94
2019-02-28T06:23:45.260Z,1005.93
2019-02-28T06:24:45.918Z,1005.98
2019-02-28T06:25:45.236Z,1006.00
2019-02-28T06:26:45.253Z,1006.01
2019-02-28T06:27:48.898Z,1005.98
2019-02-28T06:28:45.280Z,1006.06
2019-02-28T06:29:45.289Z,1006.11
2019-02-28T06:30:45.249Z,1006.18
2019-02-28T06:31:48.329Z,1006.17
2019-02-28T06:32:45.253Z,1006.18
2019-02-28T06:33:45.301Z,1006.18
2019-02-28T06:34:45.257Z,1006.21
2019-02-28T06:35:45.263Z,1006.17
2019-02-28T06:36:45.259Z,1006.22
2019-02-28T06:37:45.274Z,1006.24
2019-02-28T06:38:45.286Z,1006.18
2019-02-28T06:39:45.292Z,1006.25
2019-02-28T06:40:45.308Z,1006.29
2019-02-28T06:41:45.275Z,1006.21
2019-02-28T06:42:46.637Z,1006.19
2019-02-28T06:43:45.345Z,1006.21
2019-02-28T06:44:45.252Z,1006.24
2019-02-28T06:45:45.312Z,1006.19
2019-02-28T06:46:45.291Z,1006.23
2019-02-28T06:47:48.608Z,1006.19
2019-02-28T06:48:45.315Z,1006.19
2019-02-28T06:49:45.271Z,1006.18
2019-02-28T06:50:45.595Z,1006.14
2019-02-28T06:51:45.276Z,1006.12
2019-02-28T06:52:45.297Z,1006.16
2019-02-28T06:53:45.303Z,1006.21
2019-02-28T06:54:45.281Z,1006.12
2019-02-28T06:55:46.509Z,1006.11
2019-02-28T06:56:45.286Z,1006.12
2019-02-28T06:57:45.280Z,1006.11
2019-02-28T06:58:45.303Z,1006.13
2019-02-28T06:59:45.341Z,1006.13
2019-02-28T07:00:47.367Z,1006.12
2019-02-28T07:01:45.350Z,1006.21
2019-02-28T07:02:45.309Z,1006.18
2019-02-28T07:03:53.288Z,1006.19
2019-02-28T07:04:45.476Z,1006.16
2019-02-28T07:05:45.316Z,1006.11
2019-02-28T07:06:45.329Z,1006.22
2019-02-28T07:07:45.791Z,1006.17
2019-02-28T07:08:45.353Z,1006.19
2019-02-28T07:09:45.364Z,1006.29
2019-02-28T07:10:48.448Z,1006.25
2019-02-28T07:11:45.304Z,1006.17
2019-02-28T07:12:45.328Z,1006.20
2019-02-28T07:13:45.331Z,1006.19
2019-02-28T07:14:49.216Z,1006.17
2019-02-28T07:15:45.323Z,1006.18
2019-02-28T07:16:45.319Z,1006.20
2019-02-28T07:17:46.505Z,1006.26
2019-02-28T07:18:45.355Z,1006.19
2019-02-28T07:19:45.340Z,1006.15
2019-02-28T07:20:47.160Z,1006.15
2019-02-28T07:21:45.331Z,1006.11
2019-02-28T07:22:45.367Z,1006.14
2019-02-28T07:23:45.340Z,1006.14
2019-02-28T07:24:45.357Z,1006.15
2019-02-28T07:25:47.304Z,1006.14
2019-02-28T07:26:45.343Z,1006.20
2019-02-28T07:27:45.334Z,1006.15
2019-02-28T07:28:45.352Z,1006.08
2019-02-28T07:29:45.324Z,1006.18
2019-02-28T07:30:45.329Z,1006.20
2019-02-28T07:31:45.342Z,1006.18
2019-02-28T07:32:45.331Z,1006.18
2019-02-28T07:33:45.356Z,1006.09
2019-02-28T07:34:45.329Z,1006.19
2019-02-28T07:35:45.347Z,1006.19
2019-02-28T07:36:45.824Z,1006.17
2019-02-28T07:37:45.384Z,1006.17
2019-02-28T07:38:45.342Z,1006.17
2019-02-28T07:39:45.346Z,1006.18
2019-02-28T07:40:45.754Z,1006.22
2019-02-28T07:41:45.381Z,1006.10
2019-02-28T07:42:45.394Z,1006.18
2019-02-28T07:43:46.237Z,1006.15
2019-02-28T07:44:45.379Z,1006.01
2019-02-28T07:45:45.386Z,1006.03
2019-02-28T07:46:45.424Z,1006.11
2019-02-28T07:47:45.430Z,1006.06
2019-02-28T07:48:45.465Z,1006.02
2019-02-28T07:49:45.473Z,1006.03
2019-02-28T07:50:46.718Z,1006.05
2019-02-28T07:51:45.480Z,1006.06
2019-02-28T07:52:45.478Z,1006.08
2019-02-28T07:53:45.525Z,1006.07
2019-02-28T07:54:47.442Z,1006.17
2019-02-28T07:55:45.553Z,1006.17
2019-02-28T07:56:45.502Z,1006.18
2019-02-28T07:57:51.118Z,1006.16
2019-02-28T07:58:45.564Z,1006.15
2019-02-28T07:59:45.514Z,1006.18
2019-02-28T08:00:45.564Z,1006.14
2019-02-28T08:01:45.530Z,1006.06
2019-02-28T08:02:45.522Z,1006.09
2019-02-28T08:03:45.584Z,1006.01
2019-02-28T08:04:45.523Z,1006.06
2019-02-28T08:05:45.526Z,1005.95
2019-02-28T08:06:45.526Z,1005.97
2019-02-28T08:07:50.229Z,1005.96
2019-02-28T08:08:45.592Z,1005.83
2019-02-28T08:09:45.535Z,1005.87
2019-02-28T08:10:47.995Z,1005.96
2019-02-28T08:11:45.528Z,1005.96
2019-02-28T08:12:45.534Z,1005.82
2019-02-28T08:13:45.558Z,1005.83
2019-02-28T08:14:47.113Z,1005.91
2019-02-28T08:15:45.528Z,1005.84
2019-02-28T08:16:45.548Z,1005.91
2019-02-28T08:17:45.528Z,1005.93
2019-02-28T08:18:45.564Z,1005.93
2019-02-28T08:19:45.559Z,1005.92
2019-02-28T08:20:45.549Z,1005.96
2019-02-28T08:21:49.384Z,1005.91
2019-02-28T08:22:45.583Z,1005.80
2019-02-28T08:23:45.606Z,1005.85
2019-02-28T08:24:45.538Z,1005.82
2019-02-28T08:25:45.545Z,1005.85
2019-02-28T08:26:45.553Z,1006.06
2019-02-28T08:27:45.541Z,1005.81
2019-02-28T08:28:45.578Z,1005.85
2019-02-28T08:29:46.024Z,1005.96
2019-02-28T08:30:47.343Z,1005.96
2019-02-28T08:31:45.565Z,1005.89
2019-02-28T08:32:47.089Z,1005.84
2019-02-28T08:33:48.098Z,1005.92
2019-02-28T08:34:46.831Z,1006.03
2019-02-28T08:35:45.551Z,1005.98
2019-02-28T08:36:46.966Z,1006.03
2019-02-28T08:37:45.603Z,1006.00
2019-02-28T08:38:45.584Z,1006.00
2019-02-28T08:39:45.599Z,1006.07
2019-02-28T08:40:50.496Z,1006.04
2019-02-28T08:41:45.593Z,1006.07
2019-02-28T08:42:45.631Z,1005.97
2019-02-28T08:43:47.859Z,1005.96
2019-02-28T08:44:45.602Z,1005.91
2019-02-28T08:45:45.607Z,1005.99
2019-02-28T08:46:46.368Z,1005.89
2019-02-28T08:47:45.558Z,1006.03
2019-02-28T08:48:45.607Z,1005.94
2019-02-28T08:49:45.636Z,1006.02
2019-02-28T08:50:45.590Z,1005.98
2019-02-28T08:51:45.590Z,1005.91
2019-02-28T08:52:45.572Z,1006.05
2019-02-28T08:53:50.934Z,1005.94
2019-02-28T08:54:45.614Z,1006.08
2019-02-28T08:55:45.615Z,1005.96
2019-02-28T08:56:46.165Z,1005.92
2019-02-28T08:57:54.208Z,1006.03
2019-02-28T08:58:45.596Z,1006.02
2019-02-28T08:59:45.648Z,1005.93
2019-02-28T09:00:45.590Z,1005.92
2019-02-28T09:01:45.632Z,1005.90
2019-02-28T09:02:45.608Z,1005.92
2019-02-28T09:03:45.619Z,1005.88
2019-02-28T09:04:47.561Z,1005.88
2019-02-28T09:05:45.594Z,1005.83
2019-02-28T09:06:45.610Z,1005.83
2019-02-28T09:07:50.953Z,1005.82
2019-02-28T09:08:45.590Z,1005.81
2019-02-28T09:09:45.632Z,1005.89
2019-02-28T09:10:46.923Z,1005.91
2019-02-28T09:11:45.616Z,1005.83
2019-02-28T09:12:45.610Z,1005.89
2019-02-28T09:13:45.589Z,1005.89
2019-02-28T09:14:45.631Z,1005.91
2019-02-28T09:15:45.648Z,1005.92
2019-02-28T09:16:45.625Z,1006.07
2019-02-28T09:17:45.626Z,1005.94
2019-02-28T09:18:45.651Z,1005.89
2019-02-28T09:19:45.654Z,1005.90
2019-02-28T09:20:45.656Z,1005.93
2019-02-28T09:21:45.644Z,1005.87
2019-02-28T09:22:45.654Z,1005.86
2019-02-28T09:23:45.628Z,1005.84
2019-02-28T09:24:46.780Z,1005.83
2019-02-28T09:25:45.660Z,1005.73
2019-02-28T09:26:46.213Z,1005.78
2019-02-28T09:27:45.631Z,1005.76
2019-02-28T09:28:47.527Z,1005.68
2019-02-28T09:29:45.657Z,1005.69
2019-02-28T09:30:45.641Z,1005.69
2019-02-28T09:31:45.626Z,1005.71
2019-02-28T09:32:48.118Z,1005.65
2019-02-28T09:33:45.644Z,1005.71
2019-02-28T09:34:45.657Z,1005.67
2019-02-28T09:35:46.509Z,1005.72
2019-02-28T09:36:45.631Z,1005.67
2019-02-28T09:37:45.640Z,1005.62
2019-02-28T09:38:46.005Z,1005.68
2019-02-28T09:39:45.681Z,1005.68
2019-02-28T09:40:45.650Z,1005.59
2019-02-28T09:41:45.624Z,1005.73
2019-02-28T09:42:47.975Z,1005.70
2019-02-28T09:43:45.651Z,1005.70
2019-02-28T09:44:45.659Z,1005.79
2019-02-28T09:45:45.708Z,1005.74
2019-02-28T09:46:47.460Z,1005.74
2019-02-28T09:47:45.683Z,1005.76
2019-02-28T09:48:45.627Z,1005.74
2019-02-28T09:49:47.349Z,1005.73
2019-02-28T09:50:45.663Z,1005.66
2019-02-28T09:51:45.660Z,1005.73
2019-02-28T09:52:45.701Z,1005.74
2019-02-28T09:53:47.329Z,1005.75
2019-02-28T09:54:45.644Z,1005.75
2019-02-28T09:55:45.665Z,1005.77
2019-02-28T09:56:45.686Z,1005.78
2019-02-28T09:57:45.646Z,1005.77
2019-02-28T09:58:45.690Z,1005.78
2019-02-28T09:59:45.708Z,1005.81
2019-02-28T10:00:46.829Z,1005.78
2019-02-28T10:01:45.687Z,1005.81
2019-02-28T10:02:45.700Z,1005.82
2019-02-28T10:03:45.705Z,1005.87
2019-02-28T10:04:45.675Z,1005.86
2019-02-28T10:05:45.685Z,1005.85
2019-02-28T10:06:48.480Z,1005.86
2019-02-28T10:07:45.699Z,1006.00
2019-02-28T10:08:45.665Z,1005.89
2019-02-28T10:09:47.238Z,1005.84
2019-02-28T10:10:45.684Z,1005.99
2019-02-28T10:11:45.668Z,1005.96
2019-02-28T10:12:45.682Z,1005.85
2019-02-28T10:13:45.676Z,1005.91
2019-02-28T10:14:45.704Z,1005.98
2019-02-28T10:15:45.690Z,1005.94
2019-02-28T10:16:45.721Z,1006.00
2019-02-28T10:17:45.718Z,1005.99
2019-02-28T10:18:45.691Z,1006.01
2019-02-28T10:19:45.944Z,1005.96
2019-02-28T10:20:45.711Z,1005.92
2019-02-28T10:21:51.660Z,1005.92
2019-02-28T10:22:47.345Z,1005.94
2019-02-28T10:23:45.677Z,1005.93
2019-02-28T10:24:45.687Z,1005.84
2019-02-28T10:25:45.723Z,1005.87
2019-02-28T10:26:48.251Z,1005.90
2019-02-28T10:27:45.690Z,1005.90
2019-02-28T10:28:45.743Z,1005.89
2019-02-28T10:29:45.713Z,1005.89
2019-02-28T10:30:47.245Z,1005.87
2019-02-28T10:31:45.694Z,1005.87
2019-02-28T10:32:45.730Z,1005.86
2019-02-28T10:33:45.722Z,1005.99
2019-02-28T10:34:45.723Z,1005.98
2019-02-28T10:35:45.719Z,1005.95
2019-02-28T10:36:47.759Z,1005.96
2019-02-28T10:37:45.713Z,1005.89
2019-02-28T10:38:45.714Z,1006.02
2019-02-28T10:39:45.728Z,1005.94
2019-02-28T10:40:45.729Z,1006.04
2019-02-28T10:41:45.734Z,1006.02
2019-02-28T10:42:45.739Z,1006.05
2019-02-28T10:43:49.808Z,1006.06
2019-02-28T10:44:45.760Z,1006.03
2019-02-28T10:45:46.164Z,1006.00
2019-02-28T10:46:45.747Z,1005.97
2019-02-28T10:47:45.719Z,1005.96
2019-02-28T10:48:50.833Z,1006.06
2019-02-28T10:49:45.773Z,1006.05
2019-02-28T10:50:45.769Z,1006.08
2019-02-28T10:51:49.565Z,1006.09
2019-02-28T10:52:45.764Z,1006.09
2019-02-28T10:53:45.718Z,1006.17
2019-02-28T10:54:48.389Z,1006.08
2019-02-28T10:55:45.760Z,1006.21
2019-02-28T10:56:45.743Z,1006.09
2019-02-28T10:57:45.747Z,1006.26
2019-02-28T10:58:47.218Z,1006.16
2019-02-28T10:59:46.249Z,1006.27
2019-02-28T11:00:45.728Z,1006.21
2019-02-28T11:01:45.740Z,1006.25
2019-02-28T11:02:45.755Z,1006.32
2019-02-28T11:03:45.753Z,1006.19
2019-02-28T11:04:45.783Z,1006.29
2019-02-28T11:05:45.786Z,1006.27
2019-02-28T11:06:46.866Z,1006.24
2019-02-28T11:07:46.224Z,1006.16
2019-02-28T11:08:47.470Z,1006.23
2019-02-28T11:09:45.778Z,1006.29
2019-02-28T11:10:45.833Z,1006.10
2019-02-28T11:11:46.259Z,1006.17
2019-02-28T11:12:45.749Z,1006.12
2019-02-28T11:13:45.780Z,1006.16
2019-02-28T11:14:45.743Z,1006.14
2019-02-28T11:15:48.358Z,1006.24
2019-02-28T11:16:45.762Z,1006.11
2019-02-28T11:17:45.753Z,1006.21
2019-02-28T11:18:45.778Z,1006.21
2019-02-28T11:19:48.496Z,1006.14
2019-02-28T11:20:45.814Z,1006.19
2019-02-28T11:21:45.798Z,1006.12
2019-02-28T11:22:45.774Z,1006.19
2019-02-28T11:23:46.510Z,1006.15
2019-02-28T11:24:45.800Z,1006.07
2019-02-28T11:25:45.802Z,1006.17
2019-02-28T11:26:45.748Z,1006.19
2019-02-28T11:27:45.810Z,1006.19
2019-02-28T11:28:45.778Z,1006.12
2019-02-28T11:29:45.807Z,1006.23
2019-02-28T11:30:45.798Z,1006.05
2019-02-28T11:31:45.824Z,1006.14
2019-02-28T11:32:45.781Z,1006.06
2019-02-28T11:33:45.796Z,1006.02
2019-02-28T11:34:48.482Z,1006.11
2019-02-28T11:35:45.802Z,1006.11
2019-02-28T11:36:45.807Z,1006.16
2019-02-28T11:37:46.177Z,1006.31
2019-02-28T11:38:45.810Z,1006.25
2019-02-28T11:39:45.786Z,1006.24
2019-02-28T11:40:45.827Z,1006.20
2019-02-28T11:41:45.820Z,1006.26
2019-02-28T11:42:45.814Z,1006.19
2019-02-28T11:43:45.817Z,1006.20
2019-02-28T11:44:46.673Z,1006.25
2019-02-28T11:45:45.796Z,1006.27
2019-02-28T11:46:45.828Z,1006.22
2019-02-28T11:47:45.788Z,1006.22
2019-02-28T11:48:45.803Z,1006.21
2019-02-28T11:49:45.789Z,1006.16
2019-02-28T11:50:45.794Z,1006.22
2019-02-28T11:51:45.805Z,1006.22
2019-02-28T11:52:45.801Z,1006.14
2019-02-28T11:53:45.864Z,1006.34
2019-02-28T11:54:45.864Z,1006.30
2019-02-28T11:55:45.840Z,1006.23
2019-02-28T11:56:45.820Z,1006.22
2019-02-28T11:57:45.840Z,1006.27
2019-02-28T11:58:51.177Z,1006.18
2019-02-28T11:59:45.862Z,1006.13
2019-02-28T12:00:45.796Z,1006.10
2019-02-28T12:01:47.378Z,1006.08
2019-02-28T12:02:53.103Z,1006.12
2019-02-28T12:03:45.866Z,1006.10
2019-02-28T12:04:45.823Z,1006.05
2019-02-28T12:05:50.107Z,1006.11